Time;durP1;ratioP1;P1;durP2;ratioP2;P2;SDS_P1;SDS_P2;PMS_P1;PMS_P2;Temp;Humidity;BMP_temperature;BMP_pressure;BME280_temperature;BME280_humidity;BME280_pressure;Samples;Min_cycle;Max_cycle;Signal;HPM_P1;HPM_P2
2021/10/05 00:00:49;;;;;;;15.15;13.50;;;;;;;;;;4992674;28;20033;-60
2021/10/05 00:03:33;;;;;;;15.60;14.00;;;;;;;;;;4995292;28;20078;-61
2021/10/05 00:06:17;;;;;;;16.35;13.43;;;;;;;;;;4998368;28;20037;-76
2021/10/05 00:09:02;;;;;;;17.00;14.10;;;;;;;;;;5010204;28;20090;-60
2021/10/05 00:11:45;;;;;;;15.80;13.57;;;;;;;;;;5001801;28;20049;-59
2021/10/05 00:14:29;;;;;;;15.25;13.65;;;;;;;;;;4995260;28;20029;-58
2021/10/05 00:17:13;;;;;;;14.73;13.13;;;;;;;;;;4992624;28;20040;-59
2021/10/05 00:19:58;;;;;;;19.60;15.85;;;;;;;;;;5003425;28;20072;-60
2021/10/05 00:22:42;;;;;;;15.63;13.43;;;;;;;;;;4999923;28;20040;-59
2021/10/05 00:25:26;;;;;;;17.02;15.23;;;;;;;;;;4990642;28;20037;-67
2021/10/05 00:28:10;;;;;;;20.05;14.30;;;;;;;;;;5004524;28;20041;-66
2021/10/05 00:30:54;;;;;;;16.20;14.50;;;;;;;;;;5016747;28;20092;-66
2021/10/05 00:33:38;;;;;;;15.18;13.48;;;;;;;;;;5002253;28;20559;-67
2021/10/05 00:36:22;;;;;;;14.50;12.82;;;;;;;;;;4995696;28;20053;-64
2021/10/05 00:39:06;;;;;;;18.70;14.70;;;;;;;;;;5011078;28;20283;-66
2021/10/05 00:41:50;;;;;;;16.70;14.85;;;;;;;;;;5011927;28;20506;-65
2021/10/05 00:44:35;;;;;;;16.73;14.70;;;;;;;;;;4997000;28;20535;-60
2021/10/05 00:47:19;;;;;;;21.02;15.32;;;;;;;;;;5004458;28;20483;-61
2021/10/05 00:50:03;;;;;;;15.85;14.15;;;;;;;;;;5008813;28;20536;-62
2021/10/05 00:52:49;;;;;;;16.13;14.43;;;;;;;;;;5007525;28;20523;-62
2021/10/05 00:55:32;;;;;;;18.50;16.02;;;;;;;;;;4997885;28;20121;-62
2021/10/05 00:58:16;;;;;;;26.08;16.98;;;;;;;;;;4998871;28;20037;-61
2021/10/05 01:01:00;;;;;;;18.52;16.23;;;;;;;;;;4998242;28;20033;-69
2021/10/05 01:03:44;;;;;;;17.75;15.57;;;;;;;;;;5000624;28;20037;-59
2021/10/05 01:06:28;;;;;;;19.50;15.48;;;;;;;;;;4999232;28;20033;-60
2021/10/05 01:09:13;;;;;;;20.20;16.02;;;;;;;;;;4993751;28;20159;-61
2021/10/05 01:11:57;;;;;;;18.58;14.82;;;;;;;;;;5000174;28;20060;-59
2021/10/05 01:14:41;;;;;;;18.42;13.95;;;;;;;;;;5001299;28;20040;-58
2021/10/05 01:17:25;;;;;;;22.10;18.73;;;;;;;;;;5004261;28;20038;-58
2021/10/05 01:20:10;;;;;;;20.95;15.52;;;;;;;;;;4996984;28;20158;-67
2021/10/05 01:22:53;;;;;;;17.00;14.18;;;;;;;;;;5006599;28;20104;-57
2021/10/05 01:25:37;;;;;;;22.77;18.58;;;;;;;;;;5000657;28;20064;-59
2021/10/05 01:28:22;;;;;;;21.73;18.58;;;;;;;;;;4999233;28;20037;-60
2021/10/05 01:31:06;;;;;;;20.35;16.98;;;;;;;;;;4994635;28;20045;-57
2021/10/05 01:33:50;;;;;;;18.75;15.63;;;;;;;;;;5005138;28;20072;-60
2021/10/05 01:36:35;;;;;;;24.50;19.38;;;;;;;;;;5004678;28;20041;-59
2021/10/05 01:39:29;;;;;;;24.33;19.88;;;;;;;;;;4999972;28;20029;-66
2021/10/05 01:42:13;;;;;;;18.08;16.08;;;;;;;;;;4997222;28;20128;-65
2021/10/05 01:44:57;;;;;;;21.98;17.33;;;;;;;;;;5000861;28;20041;-64
2021/10/05 01:47:42;;;;;;;21.70;18.65;;;;;;;;;;4998118;28;20025;-64
2021/10/05 01:50:27;;;;;;;19.27;17.17;;;;;;;;;;4995992;28;20474;-66
2021/10/05 01:53:11;;;;;;;24.80;18.80;;;;;;;;;;5002377;28;20025;-66
2021/10/05 01:55:55;;;;;;;20.90;16.27;;;;;;;;;;5001543;28;20061;-67
2021/10/05 01:58:40;;;;;;;25.60;19.88;;;;;;;;;;5004957;28;20177;-63
2021/10/05 02:01:24;;;;;;;23.88;19.45;;;;;;;;;;4997896;28;20084;-62
2021/10/05 02:04:09;;;;;;;22.63;17.58;;;;;;;;;;5002950;28;20033;-61
2021/10/05 02:06:53;;;;;;;23.30;18.83;;;;;;;;;;5009589;28;20049;-61
2021/10/05 02:09:37;;;;;;;24.90;18.50;;;;;;;;;;4999296;28;20033;-62
2021/10/05 02:12:21;;;;;;;21.85;17.63;;;;;;;;;;4995849;28;20053;-63
2021/10/05 02:15:06;;;;;;;27.75;19.80;;;;;;;;;;5006908;28;20044;-71
2021/10/05 02:17:50;;;;;;;21.90;17.40;;;;;;;;;;5004394;28;20511;-61
2021/10/05 02:20:34;;;;;;;24.95;19.63;;;;;;;;;;4995714;28;20129;-62
2021/10/05 02:23:18;;;;;;;21.17;18.45;;;;;;;;;;5005768;28;20033;-61
2021/10/05 02:26:02;;;;;;;25.63;20.52;;;;;;;;;;5002634;28;20022;-62
2021/10/05 02:28:45;;;;;;;26.90;19.77;;;;;;;;;;4997895;28;20065;-62
2021/10/05 02:31:30;;;;;;;22.13;18.52;;;;;;;;;;4989392;28;20028;-60
2021/10/05 02:34:13;;;;;;;23.95;19.00;;;;;;;;;;4994484;28;20085;-68
2021/10/05 02:36:57;;;;;;;20.85;18.40;;;;;;;;;;4997586;28;20048;-62
2021/10/05 02:39:41;;;;;;;24.85;19.73;;;;;;;;;;5007572;28;20068;-63
2021/10/05 02:42:26;;;;;;;17.65;15.73;;;;;;;;;;4999654;28;20049;-63
2021/10/05 02:45:09;;;;;;;21.10;17.52;;;;;;;;;;5002644;28;20028;-61
2021/10/05 02:47:54;;;;;;;24.25;19.13;;;;;;;;;;4998982;28;20149;-61
2021/10/05 02:50:37;;;;;;;22.33;17.98;;;;;;;;;;5000219;28;20156;-63
2021/10/05 02:53:22;;;;;;;22.10;16.88;;;;;;;;;;4994271;28;20041;-64
2021/10/05 02:56:05;;;;;;;24.80;17.80;;;;;;;;;;5002529;28;20064;-58
2021/10/05 02:58:50;;;;;;;23.23;17.98;;;;;;;;;;4997771;28;20065;-59
2021/10/05 03:01:33;;;;;;;27.90;19.52;;;;;;;;;;4993843;28;20092;-57
2021/10/05 03:04:17;;;;;;;25.58;19.55;;;;;;;;;;5000688;28;20040;-60
2021/10/05 03:07:01;;;;;;;19.17;15.18;;;;;;;;;;5002243;28;20076;-61
2021/10/05 03:09:45;;;;;;;20.55;16.08;;;;;;;;;;5008838;28;20040;-59
2021/10/05 03:12:29;;;;;;;25.33;17.92;;;;;;;;;;5003836;28;20484;-62
2021/10/05 03:15:14;;;;;;;17.08;14.68;;;;;;;;;;5007379;28;20087;-61
2021/10/05 03:17:58;;;;;;;18.85;15.70;;;;;;;;;;5000864;28;20097;-61
2021/10/05 03:20:43;;;;;;;21.23;16.50;;;;;;;;;;5010985;28;20547;-62
2021/10/05 03:23:27;;;;;;;16.10;14.05;;;;;;;;;;4993135;28;20077;-64
2021/10/05 03:26:11;;;;;;;20.52;15.57;;;;;;;;;;5010676;28;20192;-61
2021/10/05 03:28:55;;;;;;;16.08;13.77;;;;;;;;;;5002045;28;20576;-59
2021/10/05 03:31:39;;;;;;;18.75;14.82;;;;;;;;;;5008162;28;20129;-60
2021/10/05 03:34:23;;;;;;;18.67;14.10;;;;;;;;;;5011099;28;20072;-62
2021/10/05 03:37:07;;;;;;;17.27;14.27;;;;;;;;;;5000196;28;20069;-62
2021/10/05 03:39:51;;;;;;;20.25;14.70;;;;;;;;;;5005479;28;20037;-60
2021/10/05 03:42:35;;;;;;;15.60;11.63;;;;;;;;;;5010625;28;20025;-61
2021/10/05 03:45:19;;;;;;;14.82;11.50;;;;;;;;;;5003002;28;20037;-61
2021/10/05 03:48:03;;;;;;;18.75;13.98;;;;;;;;;;4997428;28;20165;-59
2021/10/05 03:50:47;;;;;;;23.60;15.93;;;;;;;;;;5004253;28;20053;-62
2021/10/05 03:53:31;;;;;;;16.15;13.23;;;;;;;;;;5000303;28;20064;-60
2021/10/05 03:56:14;;;;;;;20.52;14.98;;;;;;;;;;5009242;28;20040;-61
2021/10/05 03:58:58;;;;;;;18.90;14.38;;;;;;;;;;5001490;28;20036;-64
2021/10/05 04:01:43;;;;;;;18.23;15.13;;;;;;;;;;5002557;28;20065;-62
2021/10/05 04:04:27;;;;;;;17.55;13.32;;;;;;;;;;5011054;28;20025;-62
2021/10/05 04:07:11;;;;;;;18.58;14.57;;;;;;;;;;5008242;28;20091;-70
2021/10/05 04:09:55;;;;;;;19.15;13.13;;;;;;;;;;4997599;28;20077;-69
2021/10/05 04:12:38;;;;;;;15.80;12.90;;;;;;;;;;5009526;28;20080;-69
2021/10/05 04:15:23;;;;;;;19.77;14.73;;;;;;;;;;5003656;28;20425;-69
2021/10/05 04:18:07;;;;;;;23.65;16.00;;;;;;;;;;5007367;28;20045;-69
2021/10/05 04:20:51;;;;;;;18.20;14.23;;;;;;;;;;5010098;28;20037;-69
2021/10/05 04:23:35;;;;;;;19.13;13.70;;;;;;;;;;5015172;28;20076;-76
2021/10/05 04:26:19;;;;;;;20.35;14.60;;;;;;;;;;5006924;28;20543;-65
2021/10/05 04:29:02;;;;;;;19.60;14.07;;;;;;;;;;5000067;28;20044;-70
2021/10/05 04:31:46;;;;;;;18.98;14.50;;;;;;;;;;4998190;28;20061;-68
2021/10/05 04:34:30;;;;;;;19.75;12.82;;;;;;;;;;4996798;28;20037;-68
2021/10/05 04:37:14;;;;;;;20.10;13.75;;;;;;;;;;5003172;28;20117;-68
2021/10/05 04:39:58;;;;;;;17.00;11.88;;;;;;;;;;4994514;28;20032;-69
2021/10/05 04:42:42;;;;;;;18.35;13.38;;;;;;;;;;4996767;28;20132;-77
2021/10/05 04:45:26;;;;;;;15.27;12.23;;;;;;;;;;4999400;28;20024;-63
2021/10/05 04:48:10;;;;;;;14.25;10.23;;;;;;;;;;4997931;28;20115;-62
2021/10/05 04:50:54;;;;;;;18.40;12.05;;;;;;;;;;4995559;28;20033;-62
2021/10/05 04:53:38;;;;;;;14.23;10.73;;;;;;;;;;4991959;28;20121;-62
2021/10/05 04:56:22;;;;;;;16.10;10.90;;;;;;;;;;5010978;28;20052;-62
2021/10/05 04:59:06;;;;;;;16.88;11.45;;;;;;;;;;5008228;28;20487;-62
2021/10/05 05:01:50;;;;;;;15.73;11.70;;;;;;;;;;4997819;28;20032;-77
2021/10/05 05:04:34;;;;;;;14.40;10.98;;;;;;;;;;5006841;28;20333;-66
2021/10/05 05:07:18;;;;;;;15.40;10.93;;;;;;;;;;4999791;28;20553;-66
2021/10/05 05:10:03;;;;;;;25.52;13.00;;;;;;;;;;4999844;28;20176;-66
2021/10/05 05:12:47;;;;;;;16.17;11.20;;;;;;;;;;5001978;28;20073;-64
2021/10/05 05:15:31;;;;;;;13.27;10.13;;;;;;;;;;5000469;28;20045;-63
2021/10/05 05:18:15;;;;;;;16.27;11.38;;;;;;;;;;5005533;28;20410;-67
2021/10/05 05:20:59;;;;;;;16.63;9.93;;;;;;;;;;5008507;28;20050;-63
2021/10/05 05:23:43;;;;;;;13.77;9.60;;;;;;;;;;4996161;28;20096;-68
2021/10/05 05:26:27;;;;;;;16.65;11.38;;;;;;;;;;4997328;28;20064;-67
2021/10/05 05:29:11;;;;;;;14.75;10.38;;;;;;;;;;5009280;28;20033;-68
2021/10/05 05:31:57;;;;;;;13.15;9.38;;;;;;;;;;5000863;28;20168;-66
2021/10/05 05:34:41;;;;;;;12.07;9.20;;;;;;;;;;4996827;28;20032;-69
2021/10/05 05:37:25;;;;;;;16.15;11.35;;;;;;;;;;5002239;28;20072;-60
2021/10/05 05:40:09;;;;;;;14.15;10.60;;;;;;;;;;4998558;28;20044;-61
2021/10/05 05:42:53;;;;;;;16.35;10.00;;;;;;;;;;5006728;28;20049;-60
2021/10/05 05:45:37;;;;;;;15.93;9.93;;;;;;;;;;4996613;28;20145;-60
2021/10/05 05:48:22;;;;;;;13.52;9.45;;;;;;;;;;5003681;28;20428;-60
2021/10/05 05:51:05;;;;;;;17.20;10.85;;;;;;;;;;5006780;28;20041;-60
2021/10/05 05:53:49;;;;;;;17.15;12.05;;;;;;;;;;5000711;28;20079;-60
2021/10/05 05:56:33;;;;;;;17.30;10.80;;;;;;;;;;4996504;28;20052;-75
2021/10/05 05:59:17;;;;;;;13.48;9.82;;;;;;;;;;5014282;28;20060;-74
2021/10/05 06:02:01;;;;;;;11.25;8.18;;;;;;;;;;5008004;28;20037;-75
2021/10/05 06:04:45;;;;;;;13.48;8.57;;;;;;;;;;5002786;28;20076;-77
2021/10/05 06:07:29;;;;;;;15.85;9.95;;;;;;;;;;4999815;28;20548;-74
2021/10/05 06:10:13;;;;;;;11.65;7.30;;;;;;;;;;5005631;28;20100;-76
2021/10/05 06:12:57;;;;;;;13.05;8.75;;;;;;;;;;4993260;28;20061;-83
2021/10/05 06:15:41;;;;;;;45.55;38.33;;;;;;;;;;4996964;28;20166;-61
2021/10/05 06:18:25;;;;;;;11.75;8.25;;;;;;;;;;4995367;28;20096;-70
2021/10/05 06:21:10;;;;;;;11.35;6.88;;;;;;;;;;5010535;28;20103;-68
2021/10/05 06:23:54;;;;;;;9.38;6.32;;;;;;;;;;5012117;28;20033;-69
2021/10/05 06:26:38;;;;;;;9.55;6.95;;;;;;;;;;5004097;28;20610;-71
2021/10/05 06:29:22;;;;;;;9.35;6.75;;;;;;;;;;5008167;28;20057;-70
2021/10/05 06:32:06;;;;;;;8.95;6.60;;;;;;;;;;5017202;28;20029;-72
2021/10/05 06:34:50;;;;;;;11.90;7.72;;;;;;;;;;5007950;28;20029;-65
2021/10/05 06:37:34;;;;;;;13.02;8.38;;;;;;;;;;4992221;28;20057;-70
2021/10/05 06:40:17;;;;;;;12.60;8.40;;;;;;;;;;5005609;28;20037;-70
2021/10/05 06:43:02;;;;;;;13.00;7.45;;;;;;;;;;5005449;28;20076;-71
2021/10/05 06:45:47;;;;;;;14.45;8.77;;;;;;;;;;4993313;28;20045;-71
2021/10/05 06:48:31;;;;;;;16.73;9.90;;;;;;;;;;5001839;28;20053;-70
2021/10/05 06:51:15;;;;;;;12.38;7.80;;;;;;;;;;5006764;28;20132;-71
2021/10/05 06:53:59;;;;;;;10.90;7.93;;;;;;;;;;5016921;28;20508;-63
2021/10/05 06:56:43;;;;;;;13.52;9.50;;;;;;;;;;5012030;28;20099;-63
2021/10/05 06:59:27;;;;;;;11.35;7.78;;;;;;;;;;5003358;28;20396;-65
2021/10/05 07:02:11;;;;;;;12.75;9.02;;;;;;;;;;5001555;28;20036;-64
2021/10/05 07:04:54;;;;;;;12.52;8.75;;;;;;;;;;5015956;28;20036;-63
2021/10/05 07:07:43;;;;;;;12.63;8.80;;;;;;;;;;5005620;28;20028;-64
2021/10/05 07:10:27;;;;;;;13.07;9.00;;;;;;;;;;4997015;28;20032;-59
2021/10/05 07:13:11;;;;;;;12.38;8.75;;;;;;;;;;4992567;28;20477;-68
2021/10/05 07:15:56;;;;;;;19.25;13.13;;;;;;;;;;4997526;28;20041;-68
2021/10/05 07:18:40;;;;;;;16.17;10.32;;;;;;;;;;5005660;28;20057;-70
2021/10/05 07:21:24;;;;;;;12.13;9.05;;;;;;;;;;4987525;28;20053;-67
2021/10/05 07:24:07;;;;;;;13.82;9.38;;;;;;;;;;4998498;28;20028;-69
2021/10/05 07:26:52;;;;;;;11.98;8.77;;;;;;;;;;5009550;28;20116;-69
2021/10/05 07:29:35;;;;;;;12.35;8.07;;;;;;;;;;4994180;28;20503;-65
2021/10/05 07:32:19;;;;;;;14.77;9.98;;;;;;;;;;5002377;28;20435;-59
2021/10/05 07:35:04;;;;;;;12.35;9.05;;;;;;;;;;4988206;28;20032;-60
2021/10/05 07:37:47;;;;;;;13.48;9.20;;;;;;;;;;4998126;28;20512;-60
2021/10/05 07:40:31;;;;;;;10.05;7.70;;;;;;;;;;5003278;28;20492;-63
2021/10/05 07:43:15;;;;;;;12.15;8.55;;;;;;;;;;4992420;28;20265;-64
2021/10/05 07:46:00;;;;;;;12.95;8.70;;;;;;;;;;4996871;28;20033;-69
2021/10/05 07:48:44;;;;;;;12.65;8.45;;;;;;;;;;5003837;28;20156;-65
2021/10/05 07:51:27;;;;;;;9.73;6.88;;;;;;;;;;4994445;28;20089;-83
2021/10/05 07:54:11;;;;;;;8.90;6.53;;;;;;;;;;5005929;28;20580;-82
2021/10/05 07:56:55;;;;;;;10.48;7.30;;;;;;;;;;5011372;28;20061;-85
2021/10/05 07:59:39;;;;;;;14.60;7.65;;;;;;;;;;5010119;28;20029;-82
2021/10/05 08:02:24;;;;;;;10.85;7.53;;;;;;;;;;5008644;28;20040;-72
2021/10/05 08:05:08;;;;;;;12.90;8.00;;;;;;;;;;5008953;28;20052;-68
2021/10/05 08:08:05;;;;;;;11.27;8.65;;;;;;;;;;5005876;28;20060;-67
2021/10/05 08:10:49;;;;;;;12.63;8.85;;;;;;;;;;4989577;28;20492;-68
2021/10/05 08:13:33;;;;;;;12.38;8.95;;;;;;;;;;5009230;28;20057;-68
2021/10/05 08:16:20;;;;;;;11.63;8.65;;;;;;;;;;4998689;28;20428;-67
2021/10/05 08:19:03;;;;;;;12.57;9.45;;;;;;;;;;5002687;28;20420;-66
2021/10/05 08:21:47;;;;;;;11.20;8.68;;;;;;;;;;4999886;28;20464;-68
2021/10/05 08:24:31;;;;;;;11.13;7.97;;;;;;;;;;5010069;28;20025;-71
2021/10/05 08:27:15;;;;;;;11.18;7.65;;;;;;;;;;5000709;28;20033;-68
2021/10/05 08:29:59;;;;;;;10.50;7.22;;;;;;;;;;4999416;28;20034;-62
2021/10/05 08:32:44;;;;;;;12.75;8.55;;;;;;;;;;4997193;28;20037;-63
2021/10/05 08:35:27;;;;;;;11.25;8.02;;;;;;;;;;4991608;28;20029;-65
2021/10/05 08:38:12;;;;;;;9.43;6.95;;;;;;;;;;4999526;28;20049;-63
2021/10/05 08:40:56;;;;;;;8.85;6.53;;;;;;;;;;5003779;28;20534;-63
2021/10/05 08:43:42;;;;;;;9.30;5.93;;;;;;;;;;5001496;28;20091;-65
2021/10/05 08:46:26;;;;;;;7.75;5.45;;;;;;;;;;4991799;28;20037;-67
2021/10/05 08:49:10;;;;;;;6.60;4.57;;;;;;;;;;5005251;28;20085;-68
2021/10/05 08:51:55;;;;;;;6.18;4.57;;;;;;;;;;4996021;28;20045;-64
2021/10/05 08:54:39;;;;;;;6.32;4.68;;;;;;;;;;4992710;28;20063;-68
2021/10/05 08:57:23;;;;;;;12.38;8.55;;;;;;;;;;4998052;28;20033;-67
2021/10/05 09:00:07;;;;;;;16.08;11.27;;;;;;;;;;4999978;28;20099;-62
2021/10/05 09:02:52;;;;;;;8.63;5.90;;;;;;;;;;5012941;28;20045;-64
2021/10/05 09:05:40;;;;;;;5.80;4.15;;;;;;;;;;5004250;28;20032;-63
2021/10/05 09:08:28;;;;;;;6.47;4.03;;;;;;;;;;5008329;28;20220;-67
2021/10/05 09:11:13;;;;;;;5.85;3.90;;;;;;;;;;5004905;28;20133;-67
2021/10/05 09:13:57;;;;;;;5.30;4.15;;;;;;;;;;4999498;28;20180;-67
2021/10/05 09:16:43;;;;;;;5.60;4.32;;;;;;;;;;4990199;28;20504;-66
2021/10/05 09:19:26;;;;;;;6.68;4.57;;;;;;;;;;5002026;28;20029;-65
2021/10/05 09:22:14;;;;;;;5.50;4.28;;;;;;;;;;4993212;28;20041;-62
2021/10/05 09:24:58;;;;;;;5.90;4.32;;;;;;;;;;4995234;28;20092;-62
2021/10/05 09:27:49;;;;;;;18.48;13.00;;;;;;;;;;4990394;28;20033;-62
2021/10/05 09:30:33;;;;;;;11.50;8.40;;;;;;;;;;4999585;28;20040;-63
2021/10/05 09:33:17;;;;;;;8.10;5.80;;;;;;;;;;4992748;28;20129;-61
2021/10/05 09:36:02;;;;;;;7.35;4.60;;;;;;;;;;5011838;28;20503;-62
2021/10/05 09:38:46;;;;;;;6.47;4.80;;;;;;;;;;5003840;28;20048;-65
2021/10/05 09:41:30;;;;;;;7.60;5.35;;;;;;;;;;4994959;28;20496;-62
2021/10/05 09:44:14;;;;;;;7.32;5.18;;;;;;;;;;5010017;28;20024;-62
2021/10/05 09:46:57;;;;;;;6.68;4.82;;;;;;;;;;5007089;28;20400;-64
2021/10/05 09:49:42;;;;;;;6.50;5.18;;;;;;;;;;4999818;28;20092;-62
2021/10/05 09:52:37;;;;;;;8.13;4.95;;;;;;;;;;5002584;28;20036;-61
2021/10/05 09:55:21;;;;;;;6.45;4.65;;;;;;;;;;4997495;28;20502;-78
2021/10/05 09:58:06;;;;;;;6.18;4.78;;;;;;;;;;4992190;28;20111;-62
2021/10/05 10:00:50;;;;;;;6.20;3.65;;;;;;;;;;4999224;28;20464;-64
2021/10/05 10:03:36;;;;;;;7.03;4.40;;;;;;;;;;4994218;28;20533;-64
2021/10/05 10:06:20;;;;;;;6.25;4.15;;;;;;;;;;5008351;28;20144;-63
2021/10/05 10:09:04;;;;;;;6.20;3.47;;;;;;;;;;5006761;28;20037;-62
2021/10/05 10:11:48;;;;;;;5.50;3.70;;;;;;;;;;5001907;28;20052;-65
2021/10/05 10:14:33;;;;;;;7.45;3.35;;;;;;;;;;5008716;28;20022;-66
2021/10/05 10:17:23;;;;;;;5.50;4.15;;;;;;;;;;5004376;28;20076;-74
2021/10/05 10:20:18;;;;;;;5.15;3.92;;;;;;;;;;4993925;28;20029;-78
2021/10/05 10:23:03;;;;;;;4.18;3.65;;;;;;;;;;4994285;28;20081;-77
2021/10/05 10:25:54;;;;;;;4.50;3.45;;;;;;;;;;5001212;28;20045;-77
2021/10/05 10:28:39;;;;;;;5.75;3.67;;;;;;;;;;5005641;28;20492;-79
2021/10/05 10:31:28;;;;;;;5.85;3.58;;;;;;;;;;5001099;28;20042;-82
2021/10/05 10:34:19;;;;;;;3.20;2.90;;;;;;;;;;5002320;28;20404;-68
2021/10/05 10:37:10;;;;;;;5.57;3.40;;;;;;;;;;5004202;28;20129;-82
2021/10/05 10:39:55;;;;;;;3.80;3.33;;;;;;;;;;5008631;28;20040;-74
2021/10/05 10:42:39;;;;;;;4.05;2.92;;;;;;;;;;5002716;28;20135;-79
2021/10/05 10:45:23;;;;;;;3.58;2.70;;;;;;;;;;5002557;28;20042;-77
2021/10/05 10:48:07;;;;;;;3.58;2.80;;;;;;;;;;5009822;28;20068;-76
2021/10/05 10:50:51;;;;;;;3.80;3.15;;;;;;;;;;4987724;28;20045;-66
2021/10/05 10:53:39;;;;;;;4.30;2.58;;;;;;;;;;4999278;28;20495;-66
2021/10/05 10:56:29;;;;;;;3.33;2.63;;;;;;;;;;4992855;28;20105;-70
2021/10/05 10:59:13;;;;;;;3.42;2.63;;;;;;;;;;5001593;28;20041;-69
2021/10/05 11:02:03;;;;;;;3.97;2.97;;;;;;;;;;5005518;28;20032;-70
2021/10/05 11:04:51;;;;;;;3.20;2.50;;;;;;;;;;5001625;28;20557;-69
2021/10/05 11:07:35;;;;;;;2.67;2.33;;;;;;;;;;5009687;28;20645;-68
2021/10/05 11:10:27;;;;;;;2.90;2.55;;;;;;;;;;5009238;28;20064;-69
2021/10/05 11:13:10;;;;;;;4.38;3.10;;;;;;;;;;5006387;28;20416;-59
2021/10/05 11:15:54;;;;;;;3.65;2.67;;;;;;;;;;5005037;28;20491;-60
2021/10/05 11:18:38;;;;;;;3.17;2.50;;;;;;;;;;5009502;28;20024;-61
2021/10/05 11:21:30;;;;;;;2.97;2.20;;;;;;;;;;5012766;28;20045;-60
2021/10/05 11:24:15;;;;;;;4.60;2.45;;;;;;;;;;5009851;28;20084;-62
2021/10/05 11:26:59;;;;;;;2.10;1.90;;;;;;;;;;4999111;28;20125;-80
2021/10/05 11:29:43;;;;;;;2.03;1.67;;;;;;;;;;5005238;28;20132;-64
2021/10/05 11:32:28;;;;;;;1.85;1.75;;;;;;;;;;5003977;28;20034;-65
2021/10/05 11:35:12;;;;;;;1.52;1.38;;;;;;;;;;5009079;28;20040;-68
2021/10/05 11:37:56;;;;;;;1.60;1.50;;;;;;;;;;5001521;28;20478;-67
2021/10/05 11:40:54;;;;;;;1.95;1.27;;;;;;;;;;5008505;28;20487;-68
2021/10/05 11:43:40;;;;;;;4.17;1.60;;;;;;;;;;5006350;28;20033;-69
2021/10/05 11:46:25;;;;;;;2.55;1.55;;;;;;;;;;4999782;28;20085;-81
2021/10/05 11:49:16;;;;;;;1.98;1.50;;;;;;;;;;5005184;28;20036;-67
2021/10/05 11:52:01;;;;;;;2.72;1.67;;;;;;;;;;5003301;28;20097;-66
2021/10/05 11:54:46;;;;;;;1.70;1.40;;;;;;;;;;4996485;28;20553;-68
2021/10/05 11:57:31;;;;;;;2.13;1.42;;;;;;;;;;5001807;28;20041;-67
2021/10/05 12:00:15;;;;;;;3.47;1.30;;;;;;;;;;5000612;28;20048;-68
2021/10/05 12:02:59;;;;;;;2.05;1.40;;;;;;;;;;5002796;28;20100;-68
2021/10/05 12:05:43;;;;;;;1.85;1.50;;;;;;;;;;5001125;28;20088;-59
2021/10/05 12:08:27;;;;;;;14.50;11.95;;;;;;;;;;5011145;28;20032;-67
2021/10/05 12:11:11;;;;;;;18.95;14.75;;;;;;;;;;5009573;28;20462;-69
2021/10/05 12:14:01;;;;;;;4.90;1.73;;;;;;;;;;5008705;28;20045;-70
2021/10/05 12:16:54;;;;;;;3.58;1.33;;;;;;;;;;5009808;28;20044;-66
2021/10/05 12:19:41;;;;;;;2.50;1.50;;;;;;;;;;5001751;28;20505;-66
2021/10/05 12:22:27;;;;;;;1.05;1.00;;;;;;;;;;4995015;28;20048;-66
2021/10/05 12:25:15;;;;;;;1.20;1.10;;;;;;;;;;5003144;28;20029;-70
2021/10/05 12:28:05;;;;;;;2.88;1.25;;;;;;;;;;4992124;28;20040;-74
2021/10/05 12:30:48;;;;;;;3.03;1.38;;;;;;;;;;4999286;28;21430;-79
2021/10/05 12:33:32;;;;;;;1.75;1.17;;;;;;;;;;5002981;28;20130;-81
2021/10/05 12:36:19;;;;;;;1.83;1.70;;;;;;;;;;4996189;28;20539;-83
2021/10/05 12:39:16;;;;;;;1.33;1.23;;;;;;;;;;5004826;28;20393;-81
2021/10/05 12:42:04;;;;;;;1.20;1.10;;;;;;;;;;5004081;28;20041;-61
2021/10/05 12:44:53;;;;;;;3.17;1.70;;;;;;;;;;5004933;28;20041;-59
2021/10/05 12:47:47;;;;;;;1.88;1.00;;;;;;;;;;5008893;28;20160;-63
2021/10/05 12:50:34;;;;;;;4.63;3.53;;;;;;;;;;5001829;28;20384;-60
2021/10/05 12:53:19;;;;;;;11.73;8.02;;;;;;;;;;5002200;28;20036;-61
2021/10/05 12:56:04;;;;;;;3.40;1.85;;;;;;;;;;5004198;28;20018;-62
2021/10/05 12:58:47;;;;;;;2.00;1.00;;;;;;;;;;5007891;28;20125;-84
2021/10/05 13:01:35;;;;;;;1.75;1.10;;;;;;;;;;5007957;28;20575;-69
2021/10/05 13:04:19;;;;;;;2.03;0.90;;;;;;;;;;4993732;28;20800;-70
2021/10/05 13:07:04;;;;;;;2.80;1.02;;;;;;;;;;4993925;28;20111;-69
2021/10/05 13:09:48;;;;;;;0.95;0.93;;;;;;;;;;5003369;28;20041;-72
2021/10/05 13:12:32;;;;;;;2.60;0.90;;;;;;;;;;4998303;28;20108;-67
2021/10/05 13:15:16;;;;;;;0.88;0.88;;;;;;;;;;5006006;28;20507;-69
2021/10/05 13:18:00;;;;;;;1.05;0.85;;;;;;;;;;5000946;28;20229;-69
2021/10/05 13:20:44;;;;;;;1.27;0.85;;;;;;;;;;5008876;28;20032;-66
2021/10/05 13:23:28;;;;;;;3.65;0.80;;;;;;;;;;4993369;28;20063;-65
2021/10/05 13:26:12;;;;;;;0.95;0.88;;;;;;;;;;4992735;28;20065;-65
2021/10/05 13:28:56;;;;;;;0.88;0.85;;;;;;;;;;5004624;28;20032;-69
2021/10/05 13:31:40;;;;;;;3.17;1.10;;;;;;;;;;4995942;28;20077;-67
2021/10/05 13:34:24;;;;;;;3.65;0.93;;;;;;;;;;5007844;28;20083;-67
2021/10/05 13:37:08;;;;;;;2.47;0.90;;;;;;;;;;5009459;28;20502;-63
2021/10/05 13:39:52;;;;;;;1.30;1.20;;;;;;;;;;5001118;28;20045;-65
2021/10/05 13:42:37;;;;;;;2.00;1.10;;;;;;;;;;5001902;28;20400;-63
2021/10/05 13:45:21;;;;;;;5.97;3.53;;;;;;;;;;5006468;28;20032;-63
2021/10/05 13:48:05;;;;;;;1.00;1.00;;;;;;;;;;5006150;28;20511;-63
2021/10/05 13:50:50;;;;;;;1.02;0.80;;;;;;;;;;5015464;28;20064;-63
2021/10/05 13:53:33;;;;;;;2.25;0.88;;;;;;;;;;4995559;28;20033;-63
2021/10/05 13:56:18;;;;;;;1.25;0.93;;;;;;;;;;4993145;28;20104;-67
2021/10/05 13:59:03;;;;;;;1.10;0.95;;;;;;;;;;5004098;28;20086;-61
2021/10/05 14:01:47;;;;;;;0.95;0.85;;;;;;;;;;5003126;28;20052;-61
2021/10/05 14:04:31;;;;;;;0.80;0.80;;;;;;;;;;5008532;28;20549;-62
2021/10/05 14:07:15;;;;;;;2.10;1.00;;;;;;;;;;4997737;28;20865;-64
2021/10/05 14:10:00;;;;;;;1.45;0.82;;;;;;;;;;4999834;28;20048;-64
2021/10/05 14:12:44;;;;;;;0.90;0.90;;;;;;;;;;4994885;28;20101;-66
2021/10/05 14:15:28;;;;;;;1.17;0.90;;;;;;;;;;5003236;28;20028;-67
2021/10/05 14:18:12;;;;;;;0.95;0.90;;;;;;;;;;5005299;28;20072;-67
2021/10/05 14:20:56;;;;;;;1.92;0.90;;;;;;;;;;5000036;28;20400;-68
2021/10/05 14:23:40;;;;;;;3.70;0.90;;;;;;;;;;5000381;28;20219;-70
2021/10/05 14:26:24;;;;;;;0.88;0.82;;;;;;;;;;5001329;28;20099;-69
2021/10/05 14:29:08;;;;;;;5.55;2.22;;;;;;;;;;4991227;28;20033;-66
2021/10/05 14:31:52;;;;;;;12.98;8.98;;;;;;;;;;5012057;28;20037;-62
2021/10/05 14:34:37;;;;;;;2.55;1.00;;;;;;;;;;5000695;28;20079;-68
2021/10/05 14:37:21;;;;;;;1.42;0.70;;;;;;;;;;5005886;28;20057;-68
2021/10/05 14:40:06;;;;;;;1.77;0.90;;;;;;;;;;4979453;28;20041;-66
2021/10/05 14:42:50;;;;;;;3.22;1.30;;;;;;;;;;5010669;28;20077;-69
2021/10/05 14:45:34;;;;;;;1.00;0.90;;;;;;;;;;5000600;28;20037;-68
2021/10/05 14:48:18;;;;;;;2.53;1.20;;;;;;;;;;5009804;28;20080;-65
2021/10/05 14:51:02;;;;;;;3.20;0.88;;;;;;;;;;4999056;28;20037;-64
2021/10/05 14:53:46;;;;;;;1.27;0.90;;;;;;;;;;5005639;28;20029;-70
2021/10/05 14:56:30;;;;;;;1.45;0.98;;;;;;;;;;5002377;28;20200;-67
2021/10/05 14:59:14;;;;;;;1.33;0.93;;;;;;;;;;5012553;28;20052;-70
2021/10/05 15:01:58;;;;;;;3.28;1.20;;;;;;;;;;5007699;28;20028;-69
2021/10/05 15:04:42;;;;;;;1.52;1.10;;;;;;;;;;5003638;28;20091;-70
2021/10/05 15:07:28;;;;;;;5.30;1.45;;;;;;;;;;5006736;28;20521;-70
2021/10/05 15:10:13;;;;;;;2.58;0.80;;;;;;;;;;4999798;28;20447;-70
2021/10/05 15:12:57;;;;;;;5.50;0.90;;;;;;;;;;5010201;28;20298;-62
2021/10/05 15:15:41;;;;;;;4.85;2.55;;;;;;;;;;4999680;28;20481;-63
2021/10/05 15:18:25;;;;;;;13.85;9.57;;;;;;;;;;5002973;28;20431;-62
2021/10/05 15:21:09;;;;;;;1.88;1.38;;;;;;;;;;5000896;28;20033;-63
2021/10/05 15:23:53;;;;;;;1.65;1.10;;;;;;;;;;4999077;28;20089;-63
2021/10/05 15:26:37;;;;;;;1.88;1.30;;;;;;;;;;5014357;28;20048;-60
2021/10/05 15:29:21;;;;;;;1.42;0.90;;;;;;;;;;5010563;28;20033;-64
2021/10/05 15:32:05;;;;;;;1.00;0.90;;;;;;;;;;5006080;28;20121;-63
2021/10/05 15:34:49;;;;;;;3.95;1.17;;;;;;;;;;5003834;28;20314;-61
2021/10/05 15:37:34;;;;;;;2.28;1.00;;;;;;;;;;5008873;28;20044;-61
2021/10/05 15:40:20;;;;;;;1.52;1.30;;;;;;;;;;5002337;28;20075;-62
2021/10/05 15:43:04;;;;;;;3.38;1.10;;;;;;;;;;4992727;28;20543;-61
2021/10/05 15:45:48;;;;;;;4.63;1.00;;;;;;;;;;5000529;28;20053;-72
2021/10/05 15:48:32;;;;;;;4.95;3.28;;;;;;;;;;4996126;28;20065;-59
2021/10/05 15:51:56;;;;;;;5.63;2.50;;;;;;;;;;4999912;28;20032;-61
2021/10/05 15:54:27;;;;;;;3.00;1.00;;;;;;;;;;5007246;28;20092;-60
2021/10/05 15:57:11;;;;;;;2.95;1.15;;;;;;;;;;5002988;28;20061;-61
2021/10/05 15:59:54;;;;;;;4.70;1.60;;;;;;;;;;5004662;28;20553;-60
2021/10/05 16:02:39;;;;;;;2.80;1.00;;;;;;;;;;5000680;28;20032;-60
2021/10/05 16:05:23;;;;;;;2.60;1.00;;;;;;;;;;5009930;28;20045;-67
2021/10/05 16:08:07;;;;;;;1.70;1.23;;;;;;;;;;5001193;28;20044;-68
2021/10/05 16:10:51;;;;;;;4.13;1.90;;;;;;;;;;4999118;28;20551;-70
2021/10/05 16:13:35;;;;;;;2.53;1.20;;;;;;;;;;4996540;28;20123;-69